createdAt,value
2018-01-30T00:05:39.749Z,15.47
2018-01-30T00:07:40.932Z,14.30
2018-01-30T00:09:41.974Z,15.17
2018-01-30T00:11:43.088Z,24.00
2018-01-30T00:16:21.511Z,13.93
2018-01-30T00:18:22.463Z,16.17
2018-01-30T00:20:24.384Z,16.27
2018-01-30T00:22:35.606Z,16.67
2018-01-30T00:27:14.176Z,23.67
2018-01-30T00:29:32.268Z,15.13
2018-01-30T00:38:56.232Z,22.60
2018-01-30T00:40:57.763Z,23.67
2018-01-30T00:43:21.504Z,19.10
2018-01-30T00:45:22.887Z,22.25
2018-01-30T00:50:21.109Z,19.50
2018-01-30T00:54:50.450Z,13.53
2018-01-30T00:56:52.384Z,14.60
2018-01-30T00:58:54.104Z,14.73
2018-01-30T01:00:57.175Z,18.53
2018-01-30T01:05:30.585Z,25.20
2018-01-30T01:10:09.628Z,13.53
2018-01-30T01:12:11.604Z,16.50
2018-01-30T01:17:31.696Z,18.37
2018-01-30T01:19:33.395Z,17.23
2018-01-30T01:21:34.999Z,11.80
2018-01-30T01:23:36.288Z,13.20
2018-01-30T01:25:44.796Z,19.20
2018-01-30T01:27:45.901Z,23.47
2018-01-30T01:29:47.299Z,13.53
2018-01-30T01:32:24.068Z,11.80
2018-01-30T01:34:25.613Z,22.20
2018-01-30T01:36:27.452Z,17.70
2018-01-30T01:38:29.171Z,11.17
2018-01-30T01:40:33.773Z,19.97
2018-01-30T01:42:36.082Z,20.63
2018-01-30T01:44:37.818Z,17.23
2018-01-30T01:49:08.011Z,22.53
2018-01-30T01:51:25.945Z,22.97
2018-01-30T01:53:27.350Z,27.30
2018-01-30T01:58:22.339Z,14.13
2018-01-30T02:03:02.317Z,33.53
2018-01-30T02:05:04.081Z,14.63
2018-01-30T02:07:05.679Z,30.40
2018-01-30T02:11:38.650Z,33.87
2018-01-30T02:19:07.444Z,24.27
2018-01-30T02:21:35.346Z,17.23
2018-01-30T02:24:00.235Z,26.10
2018-01-30T02:31:00.575Z,28.27
2018-01-30T02:35:29.377Z,23.47
2018-01-30T02:37:32.470Z,26.23
2018-01-30T02:39:34.631Z,25.53
2018-01-30T02:44:21.812Z,23.83
2018-01-30T02:46:24.539Z,27.37
2018-01-30T02:48:39.854Z,26.80
2018-01-30T02:51:07.562Z,19.23
2018-01-30T02:53:10.399Z,21.50
2018-01-30T02:55:11.774Z,25.13
2018-01-30T02:57:37.155Z,23.13
2018-01-30T03:02:06.786Z,34.70
2018-01-30T03:04:09.309Z,32.03
2018-01-30T03:06:11.924Z,22.13
2018-01-30T03:08:17.075Z,20.17
2018-01-30T03:17:51.929Z,14.07
2018-01-30T03:20:13.390Z,20.30
2018-01-30T03:22:16.167Z,31.33
2018-01-30T03:26:53.460Z,19.23
2018-01-30T03:31:21.435Z,31.33
2018-01-30T03:33:23.587Z,24.03
2018-01-30T03:38:12.243Z,22.87
2018-01-30T03:40:35.309Z,45.53
2018-01-30T03:48:17.084Z,20.93
2018-01-30T09:57:26.159Z,32.45
2018-01-30T09:59:27.187Z,39.97
2018-01-30T10:01:31.126Z,19.17
2018-01-30T10:03:32.250Z,23.23
2018-01-30T10:05:33.311Z,30.17
2018-01-30T10:07:36.674Z,22.00
2018-01-30T10:09:37.807Z,25.40
2018-01-30T10:11:41.132Z,26.47
2018-01-30T10:14:02.237Z,27.87
2018-01-30T10:16:08.735Z,19.37
2018-01-30T10:18:09.862Z,23.90
2018-01-30T10:20:13.996Z,21.63
2018-01-30T10:22:16.586Z,22.70
2018-01-30T10:24:17.794Z,25.27
2018-01-30T10:26:19.443Z,16.90
2018-01-30T10:28:20.447Z,31.63
2018-01-30T10:30:21.919Z,16.93
2018-01-30T10:32:23.911Z,14.47
2018-01-30T10:34:27.527Z,27.67
2018-01-30T10:36:28.709Z,14.73
2018-01-30T10:38:29.687Z,28.00
2018-01-30T10:40:30.651Z,16.47
2018-01-30T10:42:33.004Z,18.33
2018-01-30T10:44:34.191Z,32.10
2018-01-30T10:46:36.679Z,25.00
2018-01-30T10:48:38.871Z,19.43
2018-01-30T10:50:47.764Z,27.87
2018-01-30T10:52:48.765Z,14.53
2018-01-30T10:55:00.939Z,28.10
2018-01-30T10:57:04.926Z,25.67
2018-01-30T10:59:23.413Z,35.10
2018-01-30T11:04:01.781Z,24.97
2018-01-30T11:06:02.759Z,20.53
2018-01-30T11:08:03.709Z,22.03
2018-01-30T11:10:13.575Z,24.73
2018-01-30T11:12:14.599Z,38.07
2018-01-30T11:14:28.963Z,19.57
2018-01-30T11:26:43.556Z,29.77
2018-01-30T11:28:44.526Z,16.63
2018-01-30T11:30:45.463Z,21.63
2018-01-30T11:35:14.932Z,18.13
2018-01-30T11:39:43.669Z,13.30
2018-01-30T11:44:12.670Z,22.03
2018-01-30T11:46:16.984Z,24.57
2018-01-30T11:51:04.507Z,19.23
2018-01-30T11:53:05.454Z,11.77
2018-01-30T11:57:44.534Z,25.90
2018-01-30T11:59:45.512Z,20.50
2018-01-30T12:01:46.455Z,20.70
2018-01-30T12:03:49.276Z,29.67
2018-01-30T12:05:50.876Z,25.40
2018-01-30T12:07:52.827Z,30.97
2018-01-30T12:09:57.569Z,31.87
2018-01-30T12:12:03.747Z,17.03
2018-01-30T12:14:06.750Z,24.27
2018-01-30T12:16:29.240Z,20.73
2018-01-30T12:18:30.307Z,24.33
2018-01-30T12:20:31.263Z,19.00
2018-01-30T12:25:00.837Z,22.30
2018-01-30T12:27:02.533Z,19.70
2018-01-30T12:29:04.600Z,20.57
2018-01-30T12:31:06.629Z,15.90
2018-01-30T12:35:36.540Z,22.33
2018-01-30T12:37:37.479Z,29.57
2018-01-30T12:39:38.970Z,18.67
2018-01-30T12:41:44.859Z,21.57
2018-01-30T12:43:45.927Z,25.47
2018-01-30T12:45:49.414Z,42.40
2018-01-30T12:47:50.386Z,28.27
2018-01-30T12:49:51.590Z,27.33
2018-01-30T12:51:52.555Z,27.73
2018-01-30T12:54:00.012Z,28.20
2018-01-30T12:56:00.971Z,21.07
2018-01-30T13:00:40.904Z,21.67
2018-01-30T13:02:41.883Z,15.13
2018-01-30T13:04:42.835Z,18.90
2018-01-30T13:06:43.862Z,20.83
2018-01-30T13:08:58.256Z,24.03
2018-01-30T13:10:59.319Z,24.53
2018-01-30T13:15:30.340Z,29.00
2018-01-30T13:17:36.079Z,29.87
2018-01-30T13:22:08.679Z,19.10
2018-01-30T13:24:29.757Z,21.20
2018-01-30T13:26:31.288Z,19.40
2018-01-30T13:28:32.274Z,25.77
2018-01-30T13:30:33.224Z,20.03
2018-01-30T13:32:34.207Z,16.43
2018-01-30T13:34:35.171Z,11.60
2018-01-30T13:36:36.139Z,15.80
2018-01-30T13:38:37.095Z,20.63
2018-01-30T13:40:38.064Z,24.20
2018-01-30T13:42:39.043Z,15.63
2018-01-30T13:44:39.999Z,22.93
2018-01-30T13:46:42.101Z,25.40
2018-01-30T13:48:43.569Z,18.17
2018-01-30T13:50:44.693Z,30.87
2018-01-30T13:52:45.640Z,28.33
2018-01-30T13:54:53.591Z,20.47
2018-01-30T13:56:54.551Z,12.83
2018-01-30T13:58:55.545Z,20.73
2018-01-30T14:00:56.456Z,13.70
2018-01-30T14:05:07.975Z,20.87
2018-01-30T14:07:08.947Z,17.83
2018-01-30T14:09:09.887Z,12.70
2018-01-30T14:11:10.998Z,16.17
2018-01-30T14:13:12.122Z,20.23
2018-01-30T14:15:13.224Z,13.77
2018-01-30T14:17:14.369Z,16.47
2018-01-30T14:19:33.272Z,20.47
2018-01-30T14:21:34.359Z,18.20
2018-01-30T14:23:35.311Z,26.47
2018-01-30T14:25:36.568Z,18.37
2018-01-30T14:27:37.783Z,16.47
2018-01-30T14:29:38.785Z,29.27
2018-01-30T14:31:39.744Z,14.70
2018-01-30T14:34:03.206Z,17.37
2018-01-30T14:36:04.163Z,25.80
2018-01-30T14:38:05.126Z,23.43
2018-01-30T14:40:06.152Z,16.50
2018-01-30T14:42:07.314Z,17.30
2018-01-30T14:44:09.317Z,19.73
2018-01-30T14:46:10.308Z,29.27
2018-01-30T14:48:11.296Z,29.37
2018-01-30T14:50:13.251Z,29.37
2018-01-30T14:52:14.253Z,23.53
2018-01-30T14:54:15.201Z,30.80
2018-01-30T14:56:16.172Z,26.00
2018-01-30T14:58:17.120Z,19.57
2018-01-30T15:00:18.094Z,23.37
2018-01-30T15:02:31.723Z,34.50
2018-01-30T15:04:32.695Z,25.03
2018-01-30T15:06:33.650Z,29.47
2018-01-30T15:08:34.936Z,23.27
2018-01-30T15:10:36.023Z,18.70
2018-01-30T15:13:02.215Z,26.70
2018-01-30T15:15:03.184Z,34.90
2018-01-30T15:17:04.385Z,26.27
2018-01-30T15:19:32.387Z,22.67
2018-01-30T15:21:33.384Z,24.83
2018-01-30T15:24:04.349Z,32.53
2018-01-30T15:26:05.311Z,28.53
2018-01-30T15:30:21.274Z,26.33
2018-01-30T15:32:34.200Z,28.10
2018-01-30T15:34:35.205Z,20.50
2018-01-30T15:36:36.192Z,29.13
2018-01-30T15:40:53.947Z,31.53
2018-01-30T15:42:55.016Z,31.40
2018-01-30T15:44:56.116Z,30.93
2018-01-30T15:46:57.213Z,27.90
2018-01-30T15:48:58.335Z,32.73
2018-01-30T15:50:59.446Z,24.23
2018-01-30T15:55:06.903Z,61.33
2018-01-30T15:59:37.731Z,27.17
2018-01-30T16:01:38.738Z,24.87
2018-01-30T16:04:01.473Z,33.87
2018-01-30T16:06:04.691Z,21.40
2018-01-30T16:10:42.539Z,27.57
2018-01-30T16:12:46.513Z,29.30
2018-01-30T16:19:37.056Z,24.27
2018-01-30T16:21:45.638Z,25.10
2018-01-30T16:23:49.701Z,26.70
2018-01-30T16:25:50.789Z,27.53
2018-01-30T16:27:51.758Z,32.43
2018-01-30T16:29:52.712Z,38.17
2018-01-30T16:31:54.982Z,22.63
2018-01-30T16:34:15.645Z,24.83
2018-01-30T16:38:44.617Z,25.37
2018-01-30T16:43:13.377Z,32.37
2018-01-30T16:45:15.666Z,26.27
2018-01-30T16:47:16.641Z,28.73
2018-01-30T16:51:51.016Z,23.63
2018-01-30T16:53:54.027Z,30.77
2018-01-30T16:55:55.157Z,32.73
2018-01-30T17:03:02.992Z,34.13
2018-01-30T17:07:33.065Z,29.67
2018-01-30T17:09:34.267Z,35.73
2018-01-30T17:11:37.525Z,30.10
2018-01-30T17:18:49.375Z,37.37
2018-01-30T17:25:54.608Z,33.17
2018-01-30T17:30:53.537Z,36.93
2018-01-30T17:32:54.488Z,26.60
2018-01-30T17:34:55.448Z,29.50
2018-01-30T17:39:55.774Z,33.77
2018-01-30T17:42:00.766Z,27.07
2018-01-30T17:44:01.755Z,33.43
2018-01-30T17:46:24.092Z,21.83
2018-01-30T17:48:25.267Z,36.17
2018-01-30T17:53:03.413Z,29.70
2018-01-30T17:55:05.372Z,29.70
2018-01-30T17:57:23.938Z,45.67
2018-01-30T17:59:24.936Z,56.50
2018-01-30T18:01:25.904Z,34.17
2018-01-30T18:03:26.904Z,31.07
2018-01-30T18:08:20.960Z,33.70
2018-01-30T18:10:23.177Z,23.47
2018-01-30T18:14:51.746Z,40.20
2018-01-30T18:21:40.590Z,28.20
2018-01-30T18:23:41.522Z,35.70
2018-01-30T18:25:42.462Z,39.43
2018-01-30T18:27:54.131Z,33.63
2018-01-30T18:29:55.237Z,26.60
2018-01-30T18:32:25.232Z,38.67
2018-01-30T18:34:26.291Z,35.30
2018-01-30T18:36:53.415Z,40.00
2018-01-30T18:38:54.611Z,38.53
2018-01-30T18:43:24.698Z,35.93
2018-01-30T18:45:25.668Z,58.23
2018-01-30T18:47:26.625Z,41.80
2018-01-30T18:49:27.576Z,39.77
2018-01-30T18:51:28.537Z,48.47
2018-01-30T18:53:29.559Z,41.80
2018-01-30T18:55:54.535Z,64.37
2018-01-30T18:58:24.899Z,42.20
2018-01-30T19:00:25.925Z,51.97
2018-01-30T19:02:26.913Z,50.77
2018-01-30T19:04:53.737Z,62.07
2018-01-30T19:06:54.876Z,60.23
2018-01-30T19:08:55.833Z,50.93
2018-01-30T19:10:56.763Z,62.00
2018-01-30T19:12:57.710Z,78.20
2018-01-30T19:14:58.679Z,51.67
2018-01-30T19:16:59.630Z,53.50
2018-01-30T19:19:25.336Z,51.50
2018-01-30T19:21:30.526Z,48.63
2018-01-30T19:23:31.622Z,52.40
2018-01-30T19:25:53.713Z,52.13
2018-01-30T19:28:00.349Z,51.23
2018-01-30T19:30:11.584Z,54.83
2018-01-30T19:36:20.755Z,57.00
2018-01-30T19:45:56.485Z,56.93
2018-01-30T19:50:40.753Z,54.53
2018-01-30T19:52:51.209Z,66.33
2018-01-30T19:57:29.166Z,57.23
2018-01-30T19:59:41.576Z,53.27
2018-01-30T20:01:51.277Z,69.57
2018-01-30T20:03:52.346Z,53.50
2018-01-30T20:05:53.356Z,60.33
2018-01-30T20:07:54.320Z,52.87
2018-01-30T20:09:59.370Z,61.37
2018-01-30T20:12:21.304Z,58.60
2018-01-30T20:14:25.124Z,52.17
2018-01-30T20:16:26.261Z,57.57
2018-01-30T20:18:33.159Z,64.83
2018-01-30T20:20:35.093Z,49.87
2018-01-30T20:22:50.244Z,52.67
2018-01-30T20:25:02.353Z,53.03
2018-01-30T20:29:47.401Z,46.90
2018-01-30T20:31:48.469Z,58.43
2018-01-30T20:34:10.950Z,59.77
2018-01-30T20:36:11.972Z,47.87
2018-01-30T20:38:13.059Z,52.63
2018-01-30T20:40:14.080Z,58.60
2018-01-30T20:42:15.188Z,51.53
2018-01-30T20:44:20.056Z,53.87
2018-01-30T20:46:21.125Z,54.43
2018-01-30T20:53:26.065Z,48.00
2018-01-30T21:00:23.593Z,65.70
2018-01-30T21:02:24.569Z,54.63
2018-01-30T21:04:25.576Z,44.43
2018-01-30T21:08:56.766Z,60.17
2018-01-30T21:11:01.846Z,47.60
2018-01-30T21:15:42.738Z,45.70
2018-01-30T21:17:44.518Z,52.53
2018-01-30T21:19:46.129Z,50.93
2018-01-30T21:40:04.998Z,43.83
2018-01-30T21:42:12.536Z,56.17
2018-01-30T21:46:44.764Z,89.87
2018-01-30T21:49:11.150Z,96.90
2018-01-30T21:53:51.609Z,65.33
2018-01-30T21:55:52.953Z,75.10
2018-01-30T22:00:32.380Z,62.07
2018-01-30T22:05:09.267Z,64.03
2018-01-30T22:07:10.663Z,62.20
2018-01-30T22:09:27.814Z,63.63
2018-01-30T22:11:55.556Z,54.50
2018-01-30T22:13:57.375Z,61.53
2018-01-30T22:30:10.493Z,57.40
2018-01-30T22:32:12.959Z,47.70
2018-01-30T22:34:14.664Z,48.53
2018-01-30T22:36:31.347Z,59.03
2018-01-30T22:38:32.575Z,63.83
2018-01-30T22:43:12.962Z,54.17
2018-01-30T22:45:15.085Z,70.47
